sensor_id;sensor_type;location;lat;lon;timestamp;temperature;humidity
17984;DHT22;9117;52.420;20.728;2022-08-19T00:01:52;22.40;99.90
17984;DHT22;9117;52.420;20.728;2022-08-19T00:04:23;22.40;99.90
17984;DHT22;9117;52.420;20.728;2022-08-19T00:06:53;22.50;99.90
17984;DHT22;9117;52.420;20.728;2022-08-19T00:09:23;22.50;99.90
17984;DHT22;9117;52.420;20.728;2022-08-19T00:11:52;22.50;99.90
17984;DHT22;9117;52.420;20.728;2022-08-19T00:14:24;22.50;99.90
17984;DHT22;9117;52.420;20.728;2022-08-19T00:16:53;22.40;99.90
17984;DHT22;9117;52.420;20.728;2022-08-19T00:19:22;22.40;99.90
17984;DHT22;9117;52.420;20.728;2022-08-19T00:21:53;22.40;99.90
17984;DHT22;9117;52.420;20.728;2022-08-19T00:24:23;22.40;99.90
17984;DHT22;9117;52.420;20.728;2022-08-19T00:26:51;22.40;99.90
17984;DHT22;9117;52.420;20.728;2022-08-19T00:29:21;22.30;99.90
17984;DHT22;9117;52.420;20.728;2022-08-19T00:31:50;22.30;99.90
17984;DHT22;9117;52.420;20.728;2022-08-19T00:34:20;22.20;99.90
17984;DHT22;9117;52.420;20.728;2022-08-19T00:36:48;22.20;99.90
17984;DHT22;9117;52.420;20.728;2022-08-19T00:39:18;22.30;99.90
17984;DHT22;9117;52.420;20.728;2022-08-19T00:41:47;22.00;99.90
17984;DHT22;9117;52.420;20.728;2022-08-19T00:44:18;22.10;99.90
17984;DHT22;9117;52.420;20.728;2022-08-19T00:46:55;22.20;99.90
17984;DHT22;9117;52.420;20.728;2022-08-19T00:49:27;22.10;99.90
17984;DHT22;9117;52.420;20.728;2022-08-19T00:52:00;22.00;99.90
17984;DHT22;9117;52.420;20.728;2022-08-19T00:54:31;22.00;99.90
17984;DHT22;9117;52.420;20.728;2022-08-19T00:57:02;21.80;99.90
17984;DHT22;9117;52.420;20.728;2022-08-19T00:59:35;21.80;99.90
17984;DHT22;9117;52.420;20.728;2022-08-19T01:02:24;21.80;99.90
17984;DHT22;9117;52.420;20.728;2022-08-19T01:04:53;21.80;99.90
17984;DHT22;9117;52.420;20.728;2022-08-19T01:07:21;21.70;99.90
17984;DHT22;9117;52.420;20.728;2022-08-19T01:09:51;21.70;99.90
17984;DHT22;9117;52.420;20.728;2022-08-19T01:12:20;21.40;99.90
17984;DHT22;9117;52.420;20.728;2022-08-19T01:14:49;21.10;99.90
17984;DHT22;9117;52.420;20.728;2022-08-19T01:17:19;21.00;99.90
17984;DHT22;9117;52.420;20.728;2022-08-19T01:19:47;21.00;99.90
17984;DHT22;9117;52.420;20.728;2022-08-19T01:22:19;21.00;99.90
17984;DHT22;9117;52.420;20.728;2022-08-19T01:25:00;20.90;99.90
17984;DHT22;9117;52.420;20.728;2022-08-19T01:27:38;20.80;99.90
17984;DHT22;9117;52.420;20.728;2022-08-19T01:30:11;20.70;99.90
17984;DHT22;9117;52.420;20.728;2022-08-19T01:32:40;20.70;99.90
17984;DHT22;9117;52.420;20.728;2022-08-19T01:35:10;20.70;99.90
17984;DHT22;9117;52.420;20.728;2022-08-19T01:37:43;20.90;99.90
17984;DHT22;9117;52.420;20.728;2022-08-19T01:40:13;21.10;99.90
17984;DHT22;9117;52.420;20.728;2022-08-19T01:42:41;21.20;99.90
17984;DHT22;9117;52.420;20.728;2022-08-19T01:45:10;21.20;99.90
17984;DHT22;9117;52.420;20.728;2022-08-19T01:47:38;21.20;99.90
17984;DHT22;9117;52.420;20.728;2022-08-19T01:50:08;21.30;99.90
17984;DHT22;9117;52.420;20.728;2022-08-19T01:52:38;21.10;99.90
17984;DHT22;9117;52.420;20.728;2022-08-19T01:55:09;21.00;99.90
17984;DHT22;9117;52.420;20.728;2022-08-19T01:57:41;20.80;99.90
17984;DHT22;9117;52.420;20.728;2022-08-19T02:00:12;20.80;99.90
17984;DHT22;9117;52.420;20.728;2022-08-19T02:02:42;20.70;99.90
17984;DHT22;9117;52.420;20.728;2022-08-19T02:05:11;20.60;99.90
17984;DHT22;9117;52.420;20.728;2022-08-19T02:07:40;20.70;99.90
17984;DHT22;9117;52.420;20.728;2022-08-19T02:10:13;20.80;99.90
17984;DHT22;9117;52.420;20.728;2022-08-19T02:12:44;20.70;99.90
17984;DHT22;9117;52.420;20.728;2022-08-19T02:15:13;20.60;99.90
17984;DHT22;9117;52.420;20.728;2022-08-19T02:17:42;20.20;1.00
17984;DHT22;9117;52.420;20.728;2022-08-19T02:20:11;20.10;1.00
17984;DHT22;9117;52.420;20.728;2022-08-19T02:22:40;19.90;1.00
17984;DHT22;9117;52.420;20.728;2022-08-19T02:25:09;20.00;1.00
17984;DHT22;9117;52.420;20.728;2022-08-19T02:27:38;20.10;1.00
17984;DHT22;9117;52.420;20.728;2022-08-19T02:30:13;19.90;1.00
17984;DHT22;9117;52.420;20.728;2022-08-19T02:32:43;20.10;1.00
17984;DHT22;9117;52.420;20.728;2022-08-19T02:35:12;20.00;1.00
17984;DHT22;9117;52.420;20.728;2022-08-19T02:37:41;19.90;1.00
17984;DHT22;9117;52.420;20.728;2022-08-19T02:40:27;19.80;1.00
17984;DHT22;9117;52.420;20.728;2022-08-19T02:42:55;19.80;1.00
17984;DHT22;9117;52.420;20.728;2022-08-19T02:45:25;19.80;1.00
17984;DHT22;9117;52.420;20.728;2022-08-19T02:47:53;19.90;1.00
17984;DHT22;9117;52.420;20.728;2022-08-19T02:50:23;20.00;1.00
17984;DHT22;9117;52.420;20.728;2022-08-19T02:52:52;20.00;1.00
17984;DHT22;9117;52.420;20.728;2022-08-19T02:55:20;20.00;1.00
17984;DHT22;9117;52.420;20.728;2022-08-19T02:57:48;20.00;1.00
17984;DHT22;9117;52.420;20.728;2022-08-19T03:00:16;20.00;1.00
17984;DHT22;9117;52.420;20.728;2022-08-19T03:02:46;19.90;1.00
17984;DHT22;9117;52.420;20.728;2022-08-19T03:05:15;20.00;1.00
17984;DHT22;9117;52.420;20.728;2022-08-19T03:07:54;19.90;1.00
17984;DHT22;9117;52.420;20.728;2022-08-19T03:10:22;19.90;1.00
17984;DHT22;9117;52.420;20.728;2022-08-19T03:12:50;19.90;1.00
17984;DHT22;9117;52.420;20.728;2022-08-19T03:15:19;20.00;1.00
17984;DHT22;9117;52.420;20.728;2022-08-19T03:17:48;20.00;1.00
17984;DHT22;9117;52.420;20.728;2022-08-19T03:20:16;20.00;1.00
17984;DHT22;9117;52.420;20.728;2022-08-19T03:22:44;19.90;1.00
17984;DHT22;9117;52.420;20.728;2022-08-19T03:25:13;19.90;1.00
17984;DHT22;9117;52.420;20.728;2022-08-19T03:27:42;20.00;1.00
17984;DHT22;9117;52.420;20.728;2022-08-19T03:30:12;20.00;1.00
17984;DHT22;9117;52.420;20.728;2022-08-19T03:32:50;20.00;1.00
17984;DHT22;9117;52.420;20.728;2022-08-19T03:35:22;20.20;1.00
17984;DHT22;9117;52.420;20.728;2022-08-19T03:37:51;20.40;1.00
17984;DHT22;9117;52.420;20.728;2022-08-19T03:40:19;20.40;1.00
17984;DHT22;9117;52.420;20.728;2022-08-19T03:42:47;20.50;1.00
17984;DHT22;9117;52.420;20.728;2022-08-19T03:45:17;20.30;1.00
17984;DHT22;9117;52.420;20.728;2022-08-19T03:47:46;20.20;1.00
17984;DHT22;9117;52.420;20.728;2022-08-19T03:50:15;20.00;1.00
17984;DHT22;9117;52.420;20.728;2022-08-19T03:52:48;20.00;1.00
17984;DHT22;9117;52.420;20.728;2022-08-19T03:55:17;20.00;1.00
17984;DHT22;9117;52.420;20.728;2022-08-19T03:57:45;20.20;1.00
17984;DHT22;9117;52.420;20.728;2022-08-19T04:00:15;20.30;1.00
17984;DHT22;9117;52.420;20.728;2022-08-19T04:02:44;20.30;1.00
17984;DHT22;9117;52.420;20.728;2022-08-19T04:05:26;20.40;1.00
17984;DHT22;9117;52.420;20.728;2022-08-19T04:07:55;20.60;1.00
17984;DHT22;9117;52.420;20.728;2022-08-19T04:10:26;20.60;1.00
17984;DHT22;9117;52.420;20.728;2022-08-19T04:12:55;20.60;1.00
17984;DHT22;9117;52.420;20.728;2022-08-19T04:15:23;20.60;1.00
17984;DHT22;9117;52.420;20.728;2022-08-19T04:17:51;20.70;1.00
17984;DHT22;9117;52.420;20.728;2022-08-19T04:20:19;20.50;1.00
17984;DHT22;9117;52.420;20.728;2022-08-19T04:22:49;20.60;1.00
17984;DHT22;9117;52.420;20.728;2022-08-19T04:25:17;20.60;1.00
17984;DHT22;9117;52.420;20.728;2022-08-19T04:27:45;20.60;1.00
17984;DHT22;9117;52.420;20.728;2022-08-19T04:30:15;20.60;1.00
17984;DHT22;9117;52.420;20.728;2022-08-19T04:32:44;20.60;1.00
17984;DHT22;9117;52.420;20.728;2022-08-19T04:35:12;20.70;1.00
17984;DHT22;9117;52.420;20.728;2022-08-19T04:37:44;20.60;1.00
17984;DHT22;9117;52.420;20.728;2022-08-19T04:40:14;20.70;1.00
17984;DHT22;9117;52.420;20.728;2022-08-19T04:42:59;20.80;99.90
17984;DHT22;9117;52.420;20.728;2022-08-19T04:45:28;20.90;1.00
17984;DHT22;9117;52.420;20.728;2022-08-19T04:48:10;20.90;1.00
17984;DHT22;9117;52.420;20.728;2022-08-19T04:50:54;21.00;1.00
17984;DHT22;9117;52.420;20.728;2022-08-19T04:53:25;21.10;1.00
17984;DHT22;9117;52.420;20.728;2022-08-19T04:55:57;21.20;99.90
17984;DHT22;9117;52.420;20.728;2022-08-19T04:58:26;21.30;99.90
17984;DHT22;9117;52.420;20.728;2022-08-19T05:00:55;21.40;99.90
17984;DHT22;9117;52.420;20.728;2022-08-19T05:03:23;21.60;99.90
17984;DHT22;9117;52.420;20.728;2022-08-19T05:05:56;21.70;99.90
17984;DHT22;9117;52.420;20.728;2022-08-19T05:08:25;21.70;99.90
17984;DHT22;9117;52.420;20.728;2022-08-19T05:10:58;21.80;99.90
17984;DHT22;9117;52.420;20.728;2022-08-19T05:13:27;21.80;99.90
17984;DHT22;9117;52.420;20.728;2022-08-19T05:15:57;21.90;99.90
17984;DHT22;9117;52.420;20.728;2022-08-19T05:18:25;22.00;99.90
17984;DHT22;9117;52.420;20.728;2022-08-19T05:21:18;22.00;99.90
17984;DHT22;9117;52.420;20.728;2022-08-19T05:24:05;22.00;99.90
17984;DHT22;9117;52.420;20.728;2022-08-19T05:26:37;22.10;99.90
17984;DHT22;9117;52.420;20.728;2022-08-19T05:29:06;22.10;99.90
17984;DHT22;9117;52.420;20.728;2022-08-19T05:31:37;22.30;99.90
17984;DHT22;9117;52.420;20.728;2022-08-19T05:34:07;22.30;99.90
17984;DHT22;9117;52.420;20.728;2022-08-19T05:36:46;22.40;99.90
17984;DHT22;9117;52.420;20.728;2022-08-19T05:39:16;22.50;99.90
17984;DHT22;9117;52.420;20.728;2022-08-19T05:41:49;22.50;99.90
17984;DHT22;9117;52.420;20.728;2022-08-19T05:44:19;22.50;99.90
17984;DHT22;9117;52.420;20.728;2022-08-19T05:46:48;22.60;99.90
17984;DHT22;9117;52.420;20.728;2022-08-19T05:49:21;22.60;99.90
17984;DHT22;9117;52.420;20.728;2022-08-19T05:51:50;22.60;99.90
17984;DHT22;9117;52.420;20.728;2022-08-19T05:54:18;22.70;99.90
17984;DHT22;9117;52.420;20.728;2022-08-19T05:56:49;22.80;99.90
17984;DHT22;9117;52.420;20.728;2022-08-19T05:59:19;22.90;99.90
17984;DHT22;9117;52.420;20.728;2022-08-19T06:01:53;23.00;99.90
17984;DHT22;9117;52.420;20.728;2022-08-19T06:04:24;23.10;99.90
17984;DHT22;9117;52.420;20.728;2022-08-19T06:06:53;23.20;99.90
17984;DHT22;9117;52.420;20.728;2022-08-19T06:09:22;23.30;99.90
17984;DHT22;9117;52.420;20.728;2022-08-19T06:11:54;23.40;99.90
17984;DHT22;9117;52.420;20.728;2022-08-19T06:14:26;23.50;99.90
17984;DHT22;9117;52.420;20.728;2022-08-19T06:16:54;23.60;99.90
17984;DHT22;9117;52.420;20.728;2022-08-19T06:19:23;23.70;99.90
17984;DHT22;9117;52.420;20.728;2022-08-19T06:21:52;23.90;99.90
17984;DHT22;9117;52.420;20.728;2022-08-19T06:24:24;23.90;99.90
17984;DHT22;9117;52.420;20.728;2022-08-19T06:26:55;24.10;99.90
17984;DHT22;9117;52.420;20.728;2022-08-19T06:29:28;24.10;99.90
17984;DHT22;9117;52.420;20.728;2022-08-19T06:31:58;24.20;99.90
17984;DHT22;9117;52.420;20.728;2022-08-19T06:34:28;24.30;99.90
17984;DHT22;9117;52.420;20.728;2022-08-19T06:36:58;24.40;99.90
17984;DHT22;9117;52.420;20.728;2022-08-19T06:39:29;24.40;99.90
17984;DHT22;9117;52.420;20.728;2022-08-19T06:42:01;24.50;99.90
17984;DHT22;9117;52.420;20.728;2022-08-19T06:44:35;24.60;99.90
17984;DHT22;9117;52.420;20.728;2022-08-19T06:47:12;24.70;99.90
17984;DHT22;9117;52.420;20.728;2022-08-19T06:49:54;24.80;99.90
17984;DHT22;9117;52.420;20.728;2022-08-19T06:52:27;24.80;99.90
17984;DHT22;9117;52.420;20.728;2022-08-19T06:54:55;24.90;99.90
17984;DHT22;9117;52.420;20.728;2022-08-19T06:57:27;24.90;99.90
17984;DHT22;9117;52.420;20.728;2022-08-19T06:59:59;25.00;99.90
17984;DHT22;9117;52.420;20.728;2022-08-19T07:02:27;25.10;99.90
17984;DHT22;9117;52.420;20.728;2022-08-19T07:04:56;25.20;99.90
17984;DHT22;9117;52.420;20.728;2022-08-19T07:07:25;25.40;99.90
17984;DHT22;9117;52.420;20.728;2022-08-19T07:09:53;25.40;99.90
17984;DHT22;9117;52.420;20.728;2022-08-19T07:12:30;25.60;99.90
17984;DHT22;9117;52.420;20.728;2022-08-19T07:15:01;25.70;99.90
17984;DHT22;9117;52.420;20.728;2022-08-19T07:17:30;25.90;99.90
17984;DHT22;9117;52.420;20.728;2022-08-19T07:20:00;25.90;99.90
17984;DHT22;9117;52.420;20.728;2022-08-19T07:22:32;26.00;99.90
17984;DHT22;9117;52.420;20.728;2022-08-19T07:25:02;26.00;99.90
17984;DHT22;9117;52.420;20.728;2022-08-19T07:27:32;26.10;99.90
17984;DHT22;9117;52.420;20.728;2022-08-19T07:30:01;26.30;99.90
17984;DHT22;9117;52.420;20.728;2022-08-19T07:32:29;26.40;99.90
17984;DHT22;9117;52.420;20.728;2022-08-19T07:34:58;26.50;99.90
17984;DHT22;9117;52.420;20.728;2022-08-19T07:37:29;26.50;99.90
17984;DHT22;9117;52.420;20.728;2022-08-19T07:39:59;26.60;99.90
17984;DHT22;9117;52.420;20.728;2022-08-19T07:42:28;26.70;99.90
17984;DHT22;9117;52.420;20.728;2022-08-19T07:44:58;26.70;99.90
17984;DHT22;9117;52.420;20.728;2022-08-19T07:47:26;26.80;99.90
17984;DHT22;9117;52.420;20.728;2022-08-19T07:50:15;26.80;99.90
17984;DHT22;9117;52.420;20.728;2022-08-19T07:52:44;26.90;99.90
17984;DHT22;9117;52.420;20.728;2022-08-19T07:55:18;26.90;99.90
17984;DHT22;9117;52.420;20.728;2022-08-19T07:58:07;26.90;99.90
17984;DHT22;9117;52.420;20.728;2022-08-19T08:00:36;27.00;99.90
17984;DHT22;9117;52.420;20.728;2022-08-19T08:03:05;27.10;99.90
17984;DHT22;9117;52.420;20.728;2022-08-19T08:05:33;27.20;99.90
17984;DHT22;9117;52.420;20.728;2022-08-19T08:08:18;27.10;99.90
17984;DHT22;9117;52.420;20.728;2022-08-19T08:11:10;27.20;99.90
17984;DHT22;9117;52.420;20.728;2022-08-19T08:13:41;27.40;99.90
17984;DHT22;9117;52.420;20.728;2022-08-19T08:16:11;27.60;99.90
17984;DHT22;9117;52.420;20.728;2022-08-19T08:18:40;27.60;99.90
17984;DHT22;9117;52.420;20.728;2022-08-19T08:21:18;27.50;99.90
17984;DHT22;9117;52.420;20.728;2022-08-19T08:23:47;27.50;99.90
17984;DHT22;9117;52.420;20.728;2022-08-19T08:26:17;27.60;99.90
17984;DHT22;9117;52.420;20.728;2022-08-19T08:28:45;27.70;99.90
17984;DHT22;9117;52.420;20.728;2022-08-19T08:31:17;27.70;99.90
17984;DHT22;9117;52.420;20.728;2022-08-19T08:33:46;27.80;99.90
17984;DHT22;9117;52.420;20.728;2022-08-19T08:36:15;27.80;99.90
17984;DHT22;9117;52.420;20.728;2022-08-19T08:38:44;27.80;99.90
17984;DHT22;9117;52.420;20.728;2022-08-19T08:41:18;27.80;99.90
17984;DHT22;9117;52.420;20.728;2022-08-19T08:43:52;27.80;99.90
17984;DHT22;9117;52.420;20.728;2022-08-19T08:46:25;27.80;99.90
17984;DHT22;9117;52.420;20.728;2022-08-19T08:49:01;27.90;99.90
17984;DHT22;9117;52.420;20.728;2022-08-19T08:51:36;28.00;99.90
17984;DHT22;9117;52.420;20.728;2022-08-19T08:54:13;28.00;99.90
17984;DHT22;9117;52.420;20.728;2022-08-19T08:56:43;28.10;99.90
17984;DHT22;9117;52.420;20.728;2022-08-19T08:59:16;28.20;99.90
17984;DHT22;9117;52.420;20.728;2022-08-19T09:01:48;28.10;99.90
17984;DHT22;9117;52.420;20.728;2022-08-19T09:04:16;28.20;99.90
17984;DHT22;9117;52.420;20.728;2022-08-19T09:06:51;28.40;99.90
17984;DHT22;9117;52.420;20.728;2022-08-19T09:09:27;28.40;99.90
17984;DHT22;9117;52.420;20.728;2022-08-19T09:12:07;28.50;99.90
17984;DHT22;9117;52.420;20.728;2022-08-19T09:14:44;28.60;99.90
17984;DHT22;9117;52.420;20.728;2022-08-19T09:17:19;28.60;99.90
17984;DHT22;9117;52.420;20.728;2022-08-19T09:19:57;28.60;99.90
17984;DHT22;9117;52.420;20.728;2022-08-19T09:22:27;28.50;99.90
17984;DHT22;9117;52.420;20.728;2022-08-19T09:24:56;28.60;99.90
17984;DHT22;9117;52.420;20.728;2022-08-19T09:27:25;28.80;99.90
17984;DHT22;9117;52.420;20.728;2022-08-19T09:30:12;29.00;99.90
17984;DHT22;9117;52.420;20.728;2022-08-19T09:32:43;28.90;99.90
17984;DHT22;9117;52.420;20.728;2022-08-19T09:35:12;29.10;99.90
17984;DHT22;9117;52.420;20.728;2022-08-19T09:37:41;29.00;99.90
17984;DHT22;9117;52.420;20.728;2022-08-19T09:40:11;29.10;99.90
17984;DHT22;9117;52.420;20.728;2022-08-19T09:42:41;29.20;99.90
17984;DHT22;9117;52.420;20.728;2022-08-19T09:45:20;29.20;99.90
17984;DHT22;9117;52.420;20.728;2022-08-19T09:47:51;29.30;99.90
17984;DHT22;9117;52.420;20.728;2022-08-19T09:50:22;29.40;99.90
17984;DHT22;9117;52.420;20.728;2022-08-19T09:52:51;29.40;99.90
17984;DHT22;9117;52.420;20.728;2022-08-19T09:55:25;29.60;99.90
17984;DHT22;9117;52.420;20.728;2022-08-19T09:58:01;29.60;99.90
17984;DHT22;9117;52.420;20.728;2022-08-19T10:00:30;29.60;99.90
17984;DHT22;9117;52.420;20.728;2022-08-19T10:03:00;29.50;99.90
17984;DHT22;9117;52.420;20.728;2022-08-19T10:05:29;29.60;99.90
17984;DHT22;9117;52.420;20.728;2022-08-19T10:08:17;29.70;99.90
17984;DHT22;9117;52.420;20.728;2022-08-19T10:10:47;29.70;99.90
17984;DHT22;9117;52.420;20.728;2022-08-19T10:13:17;29.90;99.90
17984;DHT22;9117;52.420;20.728;2022-08-19T10:15:49;30.00;99.90
17984;DHT22;9117;52.420;20.728;2022-08-19T10:18:20;30.00;99.90
17984;DHT22;9117;52.420;20.728;2022-08-19T10:20:50;30.10;99.90
17984;DHT22;9117;52.420;20.728;2022-08-19T10:23:20;30.10;99.90
17984;DHT22;9117;52.420;20.728;2022-08-19T10:25:49;30.20;99.90
17984;DHT22;9117;52.420;20.728;2022-08-19T10:28:18;30.30;99.90
17984;DHT22;9117;52.420;20.728;2022-08-19T10:30:46;30.10;99.90
17984;DHT22;9117;52.420;20.728;2022-08-19T10:33:15;30.20;99.90
17984;DHT22;9117;52.420;20.728;2022-08-19T10:36:07;30.10;99.90
17984;DHT22;9117;52.420;20.728;2022-08-19T10:38:36;30.20;99.90
17984;DHT22;9117;52.420;20.728;2022-08-19T10:41:09;30.30;99.90
17984;DHT22;9117;52.420;20.728;2022-08-19T10:43:38;30.40;99.90
17984;DHT22;9117;52.420;20.728;2022-08-19T10:46:07;30.60;99.90
17984;DHT22;9117;52.420;20.728;2022-08-19T10:48:42;30.90;99.90
17984;DHT22;9117;52.420;20.728;2022-08-19T10:51:12;31.00;99.90
17984;DHT22;9117;52.420;20.728;2022-08-19T10:53:59;31.30;99.90
17984;DHT22;9117;52.420;20.728;2022-08-19T10:56:27;32.00;99.90
17984;DHT22;9117;52.420;20.728;2022-08-19T10:59:14;31.70;99.90
17984;DHT22;9117;52.420;20.728;2022-08-19T11:01:43;31.60;99.90
17984;DHT22;9117;52.420;20.728;2022-08-19T11:04:12;31.80;99.90
17984;DHT22;9117;52.420;20.728;2022-08-19T11:06:42;31.70;99.90
17984;DHT22;9117;52.420;20.728;2022-08-19T11:09:12;31.80;99.90
17984;DHT22;9117;52.420;20.728;2022-08-19T11:11:40;31.90;99.90
17984;DHT22;9117;52.420;20.728;2022-08-19T11:14:10;32.00;99.90
17984;DHT22;9117;52.420;20.728;2022-08-19T11:16:40;32.30;99.90
17984;DHT22;9117;52.420;20.728;2022-08-19T11:19:10;32.60;99.90
17984;DHT22;9117;52.420;20.728;2022-08-19T11:21:41;32.20;99.90
17984;DHT22;9117;52.420;20.728;2022-08-19T11:24:15;31.70;99.90
17984;DHT22;9117;52.420;20.728;2022-08-19T11:26:44;31.80;99.90
17984;DHT22;9117;52.420;20.728;2022-08-19T11:29:13;31.80;99.90
17984;DHT22;9117;52.420;20.728;2022-08-19T11:31:45;31.80;99.90
17984;DHT22;9117;52.420;20.728;2022-08-19T11:34:17;32.10;99.90
17984;DHT22;9117;52.420;20.728;2022-08-19T11:36:49;32.20;99.90
17984;DHT22;9117;52.420;20.728;2022-08-19T11:39:19;32.00;99.90
17984;DHT22;9117;52.420;20.728;2022-08-19T11:41:48;32.10;99.90
17984;DHT22;9117;52.420;20.728;2022-08-19T11:44:16;32.10;99.90
17984;DHT22;9117;52.420;20.728;2022-08-19T11:46:45;32.00;99.90
17984;DHT22;9117;52.420;20.728;2022-08-19T11:49:14;31.80;99.90
17984;DHT22;9117;52.420;20.728;2022-08-19T11:51:43;32.10;99.90
17984;DHT22;9117;52.420;20.728;2022-08-19T11:54:14;32.40;99.90
17984;DHT22;9117;52.420;20.728;2022-08-19T11:56:43;32.20;99.90
17984;DHT22;9117;52.420;20.728;2022-08-19T11:59:12;32.20;99.90
17984;DHT22;9117;52.420;20.728;2022-08-19T12:01:41;32.30;99.90
17984;DHT22;9117;52.420;20.728;2022-08-19T12:04:10;32.20;99.90
17984;DHT22;9117;52.420;20.728;2022-08-19T12:06:40;32.50;99.90
17984;DHT22;9117;52.420;20.728;2022-08-19T12:09:10;32.40;99.90
17984;DHT22;9117;52.420;20.728;2022-08-19T12:11:40;32.40;99.90
17984;DHT22;9117;52.420;20.728;2022-08-19T12:14:10;32.70;99.90
17984;DHT22;9117;52.420;20.728;2022-08-19T12:16:41;32.70;99.90
17984;DHT22;9117;52.420;20.728;2022-08-19T12:19:18;33.00;99.90
17984;DHT22;9117;52.420;20.728;2022-08-19T12:21:49;33.40;99.90
17984;DHT22;9117;52.420;20.728;2022-08-19T12:24:17;33.30;99.90
17984;DHT22;9117;52.420;20.728;2022-08-19T12:26:51;33.40;99.90
17984;DHT22;9117;52.420;20.728;2022-08-19T12:29:20;33.60;99.90
17984;DHT22;9117;52.420;20.728;2022-08-19T12:31:57;33.60;99.90
17984;DHT22;9117;52.420;20.728;2022-08-19T12:34:30;33.80;99.90
17984;DHT22;9117;52.420;20.728;2022-08-19T12:37:01;33.40;99.90
17984;DHT22;9117;52.420;20.728;2022-08-19T12:39:29;33.50;99.90
17984;DHT22;9117;52.420;20.728;2022-08-19T12:41:59;33.50;99.90
17984;DHT22;9117;52.420;20.728;2022-08-19T12:44:28;33.90;99.90
17984;DHT22;9117;52.420;20.728;2022-08-19T12:46:59;33.90;99.90
17984;DHT22;9117;52.420;20.728;2022-08-19T12:49:30;33.90;99.90
17984;DHT22;9117;52.420;20.728;2022-08-19T12:52:20;33.60;99.90
17984;DHT22;9117;52.420;20.728;2022-08-19T12:54:49;34.10;99.90
17984;DHT22;9117;52.420;20.728;2022-08-19T12:57:22;34.50;99.90
17984;DHT22;9117;52.420;20.728;2022-08-19T13:00:00;34.50;99.90
17984;DHT22;9117;52.420;20.728;2022-08-19T13:02:31;34.50;99.90
17984;DHT22;9117;52.420;20.728;2022-08-19T13:05:05;34.70;99.90
17984;DHT22;9117;52.420;20.728;2022-08-19T13:07:35;34.20;99.90
17984;DHT22;9117;52.420;20.728;2022-08-19T13:10:05;33.80;99.90
17984;DHT22;9117;52.420;20.728;2022-08-19T13:12:34;33.70;99.90
17984;DHT22;9117;52.420;20.728;2022-08-19T13:15:03;33.60;99.90
17984;DHT22;9117;52.420;20.728;2022-08-19T13:17:37;33.70;99.90
17984;DHT22;9117;52.420;20.728;2022-08-19T13:20:06;34.00;99.90
17984;DHT22;9117;52.420;20.728;2022-08-19T13:22:35;33.70;99.90
17984;DHT22;9117;52.420;20.728;2022-08-19T13:25:05;33.80;99.90
17984;DHT22;9117;52.420;20.728;2022-08-19T13:27:35;33.40;99.90
17984;DHT22;9117;52.420;20.728;2022-08-19T13:30:05;33.70;99.90
17984;DHT22;9117;52.420;20.728;2022-08-19T13:32:51;33.50;99.90
17984;DHT22;9117;52.420;20.728;2022-08-19T13:35:37;33.60;99.90
17984;DHT22;9117;52.420;20.728;2022-08-19T13:38:05;33.40;99.90
17984;DHT22;9117;52.420;20.728;2022-08-19T13:40:38;33.40;99.90
17984;DHT22;9117;52.420;20.728;2022-08-19T13:43:08;33.40;99.90
17984;DHT22;9117;52.420;20.728;2022-08-19T13:45:49;33.30;99.90
17984;DHT22;9117;52.420;20.728;2022-08-19T13:48:18;33.60;99.90
17984;DHT22;9117;52.420;20.728;2022-08-19T13:50:46;33.80;99.90
17984;DHT22;9117;52.420;20.728;2022-08-19T13:53:15;34.00;99.90
17984;DHT22;9117;52.420;20.728;2022-08-19T13:55:44;33.90;99.90
17984;DHT22;9117;52.420;20.728;2022-08-19T13:58:13;33.50;99.90
17984;DHT22;9117;52.420;20.728;2022-08-19T14:00:44;33.30;99.90
17984;DHT22;9117;52.420;20.728;2022-08-19T14:03:13;33.50;99.90
17984;DHT22;9117;52.420;20.728;2022-08-19T14:05:41;34.20;99.90
17984;DHT22;9117;52.420;20.728;2022-08-19T14:08:09;34.70;99.90
17984;DHT22;9117;52.420;20.728;2022-08-19T14:10:41;34.60;99.90
17984;DHT22;9117;52.420;20.728;2022-08-19T14:13:15;34.50;99.90
17984;DHT22;9117;52.420;20.728;2022-08-19T14:15:44;34.30;99.90
17984;DHT22;9117;52.420;20.728;2022-08-19T14:18:14;34.00;99.90
17984;DHT22;9117;52.420;20.728;2022-08-19T14:20:42;33.70;99.90
17984;DHT22;9117;52.420;20.728;2022-08-19T14:23:11;33.70;99.90
17984;DHT22;9117;52.420;20.728;2022-08-19T14:25:40;33.90;99.90
17984;DHT22;9117;52.420;20.728;2022-08-19T14:28:08;34.00;99.90
17984;DHT22;9117;52.420;20.728;2022-08-19T14:30:38;34.00;99.90
17984;DHT22;9117;52.420;20.728;2022-08-19T14:33:06;34.00;99.90
17984;DHT22;9117;52.420;20.728;2022-08-19T14:35:36;34.10;99.90
17984;DHT22;9117;52.420;20.728;2022-08-19T14:38:05;34.20;99.90
17984;DHT22;9117;52.420;20.728;2022-08-19T14:40:34;34.10;99.90
17984;DHT22;9117;52.420;20.728;2022-08-19T14:43:04;34.70;99.90
17984;DHT22;9117;52.420;20.728;2022-08-19T14:45:35;34.80;99.90
17984;DHT22;9117;52.420;20.728;2022-08-19T14:48:06;34.80;99.90
17984;DHT22;9117;52.420;20.728;2022-08-19T14:50:44;34.70;99.90
17984;DHT22;9117;52.420;20.728;2022-08-19T14:53:12;34.70;99.90
17984;DHT22;9117;52.420;20.728;2022-08-19T14:55:41;34.70;99.90
17984;DHT22;9117;52.420;20.728;2022-08-19T14:58:10;33.90;99.90
17984;DHT22;9117;52.420;20.728;2022-08-19T15:00:56;34.10;99.90
17984;DHT22;9117;52.420;20.728;2022-08-19T15:03:26;34.80;99.90
17984;DHT22;9117;52.420;20.728;2022-08-19T15:05:54;34.90;99.90
17984;DHT22;9117;52.420;20.728;2022-08-19T15:08:24;35.00;99.90
17984;DHT22;9117;52.420;20.728;2022-08-19T15:10:53;34.70;99.90
17984;DHT22;9117;52.420;20.728;2022-08-19T15:13:21;34.80;99.90
17984;DHT22;9117;52.420;20.728;2022-08-19T15:15:51;34.80;99.90
17984;DHT22;9117;52.420;20.728;2022-08-19T15:18:20;34.50;99.90
17984;DHT22;9117;52.420;20.728;2022-08-19T15:20:50;35.30;99.90
17984;DHT22;9117;52.420;20.728;2022-08-19T15:23:19;35.60;99.90
17984;DHT22;9117;52.420;20.728;2022-08-19T15:25:48;35.70;99.90
17984;DHT22;9117;52.420;20.728;2022-08-19T15:28:18;35.00;99.90
17984;DHT22;9117;52.420;20.728;2022-08-19T15:30:46;34.90;99.90
17984;DHT22;9117;52.420;20.728;2022-08-19T15:33:14;35.20;99.90
17984;DHT22;9117;52.420;20.728;2022-08-19T15:35:44;34.80;99.90
17984;DHT22;9117;52.420;20.728;2022-08-19T15:38:17;34.50;99.90
17984;DHT22;9117;52.420;20.728;2022-08-19T15:40:50;34.80;99.90
17984;DHT22;9117;52.420;20.728;2022-08-19T15:43:19;34.50;99.90
17984;DHT22;9117;52.420;20.728;2022-08-19T15:45:48;34.50;99.90
17984;DHT22;9117;52.420;20.728;2022-08-19T15:48:17;34.00;99.90
17984;DHT22;9117;52.420;20.728;2022-08-19T15:50:45;33.80;99.90
17984;DHT22;9117;52.420;20.728;2022-08-19T15:53:15;33.20;99.90
17984;DHT22;9117;52.420;20.728;2022-08-19T15:55:45;33.50;99.90
17984;DHT22;9117;52.420;20.728;2022-08-19T15:58:14;33.50;99.90